SWA6132 KMCI-KVPS
Flight info
| Callsign | SWA6132 |
|---|---|
| Flight time | 1h 30m |
| Altitude | 35000 |
| Route | RACER8 SGF ORRKK CEW |
| Aircraft | B738/M-SDE2E3FGHIRWXY/LB1 |
Departure
| Time | 2026-04-17 10:59 |
|---|---|
| Airport | Kansas City International Airport (KMCI) |
Arrival
| Time | 2026-04-17 12:29 |
|---|---|
| Airport | Destin-Fort Walton Beach Airport (KVPS) |
| Time | Latitude | Longitude | Altitude | Speed | Heading |
|---|---|---|---|---|---|
| 2026-04-17 10:54 | 39.30240 | -94.72292 | 1010 ft | 0 kts | 191° |
| 2026-04-17 10:55 | 39.30238 | -94.72292 | 1010 ft | 0 kts | 191° |
| 2026-04-17 10:55 | 39.30213 | -94.72316 | 1011 ft | 13 kts | 240° |
| 2026-04-17 10:56 | 39.30162 | -94.72404 | 1012 ft | 12 kts | 207° |
| 2026-04-17 10:56 | 39.30081 | -94.72438 | 1013 ft | 12 kts | 192° |
| 2026-04-17 10:56 | 39.30000 | -94.72460 | 1014 ft | 12 kts | 192° |
| 2026-04-17 10:56 | 39.29916 | -94.72483 | 1015 ft | 18 kts | 192° |
| 2026-04-17 10:57 | 39.29749 | -94.72531 | 1017 ft | 25 kts | 194° |
| 2026-04-17 10:57 | 39.29628 | -94.72569 | 1018 ft | 8 kts | 194° |
| 2026-04-17 10:57 | 39.29574 | -94.72586 | 1019 ft | 12 kts | 193° |
| 2026-04-17 10:57 | 39.29359 | -94.72653 | 1021 ft | 15 kts | 194° |
| 2026-04-17 10:58 | 39.29302 | -94.72692 | 1021 ft | 12 kts | 196° |
| 2026-04-17 10:58 | 39.29130 | -94.72638 | 1021 ft | 35 kts | 155° |
| 2026-04-17 10:58 | 39.29041 | -94.72132 | 1023 ft | 103 kts | 96° |
| 2026-04-17 10:58 | 39.28938 | -94.70829 | 1019 ft | 186 kts | 96° |
| 2026-04-17 10:59 | 39.28781 | -94.68900 | 1340 ft | 241 kts | 99° |
| 2026-04-17 10:59 | 39.28485 | -94.66617 | 1818 ft | 263 kts | 116° |
| 2026-04-17 10:59 | 39.27436 | -94.64847 | 2034 ft | 241 kts | 154° |
| 2026-04-17 10:59 | 39.25926 | -94.64317 | 2410 ft | 215 kts | 181° |
| 2026-04-17 11:00 | 39.24438 | -94.64167 | 3129 ft | 221 kts | 180° |
| 2026-04-17 11:00 | 39.22885 | -94.63849 | 3790 ft | 235 kts | 178° |
| 2026-04-17 11:00 | 39.21250 | -94.63408 | 4380 ft | 242 kts | 174° |
| 2026-04-17 11:00 | 39.19604 | -94.62839 | 4878 ft | 248 kts | 171° |
| 2026-04-17 11:01 | 39.17947 | -94.62163 | 5380 ft | 252 kts | 168° |
| 2026-04-17 11:01 | 39.16283 | -94.61391 | 5887 ft | 257 kts | 167° |
| 2026-04-17 11:01 | 39.14616 | -94.60537 | 6371 ft | 258 kts | 165° |
| 2026-04-17 11:01 | 39.12944 | -94.59609 | 6866 ft | 264 kts | 163° |
| 2026-04-17 11:02 | 39.11261 | -94.58615 | 7361 ft | 268 kts | 161° |
| 2026-04-17 11:02 | 39.09570 | -94.57567 | 7858 ft | 273 kts | 160° |
| 2026-04-17 11:02 | 39.07857 | -94.56468 | 8372 ft | 276 kts | 159° |
| 2026-04-17 11:02 | 39.06134 | -94.55331 | 8893 ft | 281 kts | 159° |
| 2026-04-17 11:03 | 39.04389 | -94.54148 | 9425 ft | 285 kts | 158° |
| 2026-04-17 11:03 | 39.02632 | -94.52942 | 9942 ft | 288 kts | 157° |
| 2026-04-17 11:03 | 39.00839 | -94.51693 | 10452 ft | 300 kts | 156° |
| 2026-04-17 11:03 | 38.98967 | -94.50366 | 10999 ft | 314 kts | 156° |
| 2026-04-17 11:04 | 38.97016 | -94.48985 | 11545 ft | 326 kts | 155° |
| 2026-04-17 11:04 | 38.95003 | -94.47530 | 12056 ft | 338 kts | 155° |
| 2026-04-17 11:04 | 38.92907 | -94.46024 | 12462 ft | 352 kts | 155° |
| 2026-04-17 11:04 | 38.90732 | -94.44458 | 12866 ft | 361 kts | 154° |
| 2026-04-17 11:05 | 38.88570 | -94.42866 | 13265 ft | 363 kts | 154° |
| 2026-04-17 11:05 | 38.86358 | -94.41243 | 13664 ft | 367 kts | 154° |
| 2026-04-17 11:05 | 38.84133 | -94.39618 | 14041 ft | 368 kts | 154° |
| 2026-04-17 11:05 | 38.81899 | -94.37986 | 14434 ft | 370 kts | 154° |
| 2026-04-17 11:06 | 38.79652 | -94.36334 | 14824 ft | 372 kts | 154° |
| 2026-04-17 11:06 | 38.77408 | -94.34676 | 15239 ft | 374 kts | 154° |
| 2026-04-17 11:06 | 38.75147 | -94.33003 | 15628 ft | 376 kts | 154° |
| 2026-04-17 11:06 | 38.72884 | -94.31325 | 16012 ft | 376 kts | 154° |
| 2026-04-17 11:07 | 38.70608 | -94.29640 | 16384 ft | 378 kts | 155° |
| 2026-04-17 11:07 | 38.68315 | -94.27987 | 16758 ft | 379 kts | 155° |
| 2026-04-17 11:07 | 38.66038 | -94.26350 | 17123 ft | 381 kts | 155° |
| 2026-04-17 11:07 | 38.63725 | -94.24680 | 17470 ft | 382 kts | 155° |
| 2026-04-17 11:08 | 38.61408 | -94.23000 | 17833 ft | 384 kts | 155° |
| 2026-04-17 11:08 | 38.59083 | -94.21300 | 18176 ft | 386 kts | 155° |
| 2026-04-17 11:08 | 38.56755 | -94.19589 | 18492 ft | 386 kts | 155° |
| 2026-04-17 11:08 | 38.54412 | -94.17865 | 18839 ft | 390 kts | 155° |
| 2026-04-17 11:09 | 38.52053 | -94.16133 | 19181 ft | 392 kts | 155° |
| 2026-04-17 11:09 | 38.49681 | -94.14414 | 19524 ft | 393 kts | 156° |
| 2026-04-17 11:09 | 38.47281 | -94.12713 | 19851 ft | 396 kts | 156° |
| 2026-04-17 11:10 | 38.42449 | -94.09270 | 20520 ft | 400 kts | 156° |
| 2026-04-17 11:10 | 38.40014 | -94.07534 | 20846 ft | 402 kts | 156° |
| 2026-04-17 11:10 | 38.37562 | -94.05783 | 21185 ft | 404 kts | 156° |
| 2026-04-17 11:10 | 38.35101 | -94.04018 | 21509 ft | 407 kts | 156° |
| 2026-04-17 11:11 | 38.32634 | -94.02243 | 21839 ft | 409 kts | 156° |
| 2026-04-17 11:11 | 38.30183 | -94.00484 | 22158 ft | 411 kts | 156° |
| 2026-04-17 11:11 | 38.27682 | -93.98686 | 22486 ft | 414 kts | 156° |
| 2026-04-17 11:11 | 38.25167 | -93.96869 | 22808 ft | 416 kts | 156° |
| 2026-04-17 11:12 | 38.22639 | -93.95045 | 23125 ft | 419 kts | 156° |
| 2026-04-17 11:12 | 38.20100 | -93.93214 | 23440 ft | 421 kts | 156° |
| 2026-04-17 11:12 | 38.17552 | -93.91367 | 23722 ft | 423 kts | 156° |
| 2026-04-17 11:12 | 38.14989 | -93.89503 | 24040 ft | 425 kts | 156° |
| 2026-04-17 11:13 | 38.12404 | -93.87624 | 24350 ft | 429 kts | 156° |
| 2026-04-17 11:13 | 38.09797 | -93.85743 | 24666 ft | 432 kts | 156° |
| 2026-04-17 11:13 | 38.07164 | -93.83887 | 24964 ft | 435 kts | 157° |
| 2026-04-17 11:13 | 38.04511 | -93.82018 | 25270 ft | 437 kts | 156° |
| 2026-04-17 11:14 | 38.01844 | -93.80132 | 25577 ft | 440 kts | 156° |
| 2026-04-17 11:14 | 37.99168 | -93.78232 | 25882 ft | 443 kts | 156° |
| 2026-04-17 11:14 | 37.96468 | -93.76309 | 26186 ft | 446 kts | 156° |
| 2026-04-17 11:14 | 37.93789 | -93.74395 | 26488 ft | 449 kts | 156° |
| 2026-04-17 11:15 | 37.91058 | -93.72435 | 26798 ft | 452 kts | 156° |
| 2026-04-17 11:15 | 37.88320 | -93.70464 | 27099 ft | 454 kts | 156° |
| 2026-04-17 11:15 | 37.85554 | -93.68474 | 27402 ft | 457 kts | 157° |
| 2026-04-17 11:15 | 37.82767 | -93.66516 | 27698 ft | 460 kts | 158° |
| 2026-04-17 11:16 | 37.79953 | -93.64558 | 27979 ft | 462 kts | 158° |
| 2026-04-17 11:16 | 37.77129 | -93.62584 | 28286 ft | 465 kts | 158° |
| 2026-04-17 11:16 | 37.74288 | -93.60593 | 28582 ft | 468 kts | 158° |
| 2026-04-17 11:16 | 37.71436 | -93.58586 | 28878 ft | 471 kts | 158° |
| 2026-04-17 11:17 | 37.68562 | -93.56564 | 29177 ft | 474 kts | 158° |
| 2026-04-17 11:17 | 37.65668 | -93.54521 | 29461 ft | 477 kts | 158° |
| 2026-04-17 11:17 | 37.62763 | -93.52469 | 29753 ft | 480 kts | 158° |
| 2026-04-17 11:17 | 37.59887 | -93.50433 | 30024 ft | 482 kts | 157° |
| 2026-04-17 11:18 | 37.56959 | -93.48353 | 30304 ft | 484 kts | 157° |
| 2026-04-17 11:18 | 37.54008 | -93.46256 | 30593 ft | 487 kts | 157° |
| 2026-04-17 11:18 | 37.51055 | -93.44158 | 30882 ft | 489 kts | 157° |
| 2026-04-17 11:18 | 37.48091 | -93.42057 | 31165 ft | 490 kts | 158° |
| 2026-04-17 11:19 | 37.45099 | -93.39987 | 31452 ft | 490 kts | 158° |
| 2026-04-17 11:19 | 37.42101 | -93.37931 | 31733 ft | 491 kts | 158° |
| 2026-04-17 11:19 | 37.39091 | -93.35867 | 32010 ft | 491 kts | 158° |
| 2026-04-17 11:19 | 37.36100 | -93.33795 | 32275 ft | 493 kts | 158° |
| 2026-04-17 11:20 | 37.33256 | -93.31410 | 32442 ft | 507 kts | 145° |
| 2026-04-17 11:20 | 37.30719 | -93.28286 | 32779 ft | 511 kts | 139° |
| 2026-04-17 11:20 | 37.28293 | -93.25014 | 33135 ft | 510 kts | 139° |
| 2026-04-17 11:20 | 37.25846 | -93.21796 | 33389 ft | 509 kts | 140° |
| 2026-04-17 11:21 | 37.23354 | -93.18638 | 33648 ft | 509 kts | 141° |
| 2026-04-17 11:21 | 37.20836 | -93.15509 | 33910 ft | 509 kts | 142° |
| 2026-04-17 11:21 | 37.18298 | -93.12421 | 34146 ft | 509 kts | 142° |
| 2026-04-17 11:21 | 37.15749 | -93.09327 | 34402 ft | 508 kts | 142° |
| 2026-04-17 11:22 | 37.13214 | -93.06240 | 34658 ft | 508 kts | 142° |
| 2026-04-17 11:22 | 37.10668 | -93.03159 | 34903 ft | 508 kts | 143° |
| 2026-04-17 11:22 | 37.05487 | -92.97004 | 34924 ft | 518 kts | 143° |
| 2026-04-17 11:23 | 37.00216 | -92.90763 | 34929 ft | 525 kts | 143° |
| 2026-04-17 11:23 | 36.94932 | -92.84384 | 34933 ft | 530 kts | 142° |
| 2026-04-17 11:24 | 36.89672 | -92.77981 | 34933 ft | 533 kts | 142° |
| 2026-04-17 11:24 | 36.84297 | -92.71600 | 34939 ft | 533 kts | 143° |
| 2026-04-17 11:25 | 36.78884 | -92.65240 | 34947 ft | 534 kts | 143° |
| 2026-04-17 11:25 | 36.73472 | -92.58859 | 34947 ft | 536 kts | 142° |
| 2026-04-17 11:26 | 36.68105 | -92.52365 | 34951 ft | 537 kts | 142° |
| 2026-04-17 11:26 | 36.62695 | -92.45958 | 34962 ft | 537 kts | 143° |
| 2026-04-17 11:27 | 36.57252 | -92.39563 | 34967 ft | 537 kts | 143° |
| 2026-04-17 11:27 | 36.51855 | -92.33218 | 34971 ft | 538 kts | 143° |
| 2026-04-17 11:28 | 36.46413 | -92.26816 | 34973 ft | 538 kts | 142° |
| 2026-04-17 11:28 | 36.40964 | -92.20404 | 34971 ft | 539 kts | 142° |
| 2026-04-17 11:29 | 36.35547 | -92.14032 | 34971 ft | 539 kts | 142° |
| 2026-04-17 11:29 | 36.30100 | -92.07624 | 34970 ft | 540 kts | 142° |
| 2026-04-17 11:30 | 36.24646 | -92.01209 | 34971 ft | 540 kts | 142° |
| 2026-04-17 11:30 | 36.19148 | -91.94859 | 34976 ft | 540 kts | 143° |
| 2026-04-17 11:31 | 36.13633 | -91.88554 | 34981 ft | 540 kts | 143° |
| 2026-04-17 11:31 | 36.08208 | -91.82188 | 34986 ft | 541 kts | 142° |
| 2026-04-17 11:32 | 36.02727 | -91.75789 | 34992 ft | 541 kts | 143° |
| 2026-04-17 11:32 | 35.97193 | -91.69481 | 35002 ft | 541 kts | 143° |
| 2026-04-17 11:33 | 35.91668 | -91.63175 | 35006 ft | 542 kts | 142° |
| 2026-04-17 11:33 | 35.86188 | -91.56761 | 35013 ft | 543 kts | 142° |
| 2026-04-17 11:34 | 35.80667 | -91.50433 | 35015 ft | 542 kts | 143° |
| 2026-04-17 11:34 | 35.75149 | -91.44174 | 35016 ft | 542 kts | 143° |
| 2026-04-17 11:35 | 35.69601 | -91.37878 | 35018 ft | 542 kts | 143° |
| 2026-04-17 11:35 | 35.64065 | -91.31575 | 35025 ft | 543 kts | 142° |
| 2026-04-17 11:36 | 35.58580 | -91.25181 | 35034 ft | 543 kts | 142° |
| 2026-04-17 11:36 | 35.53035 | -91.18864 | 35036 ft | 543 kts | 143° |
| 2026-04-17 11:37 | 35.47506 | -91.12615 | 35036 ft | 543 kts | 143° |
| 2026-04-17 11:37 | 35.41947 | -91.06332 | 35037 ft | 544 kts | 143° |
| 2026-04-17 11:38 | 35.36381 | -91.00048 | 35033 ft | 544 kts | 143° |
| 2026-04-17 11:38 | 35.30820 | -90.93767 | 35032 ft | 544 kts | 143° |
| 2026-04-17 11:39 | 35.25249 | -90.87478 | 35034 ft | 544 kts | 143° |
| 2026-04-17 11:39 | 35.19669 | -90.81193 | 35033 ft | 545 kts | 143° |
| 2026-04-17 11:40 | 35.14087 | -90.74894 | 35035 ft | 545 kts | 142° |
| 2026-04-17 11:40 | 35.08534 | -90.68638 | 35035 ft | 546 kts | 143° |
| 2026-04-17 11:41 | 35.02902 | -90.62427 | 35030 ft | 545 kts | 143° |
| 2026-04-17 11:41 | 34.97263 | -90.56206 | 35024 ft | 546 kts | 142° |
| 2026-04-17 11:42 | 34.92625 | -90.50976 | 35036 ft | 547 kts | 142° |
| 2026-04-17 11:42 | 34.87020 | -90.44700 | 35056 ft | 547 kts | 143° |
| 2026-04-17 11:43 | 34.81355 | -90.38514 | 35057 ft | 547 kts | 143° |
| 2026-04-17 11:43 | 34.75705 | -90.32296 | 35062 ft | 548 kts | 142° |
| 2026-04-17 11:44 | 34.70097 | -90.25996 | 35062 ft | 548 kts | 143° |
| 2026-04-17 11:44 | 34.64430 | -90.19791 | 35059 ft | 548 kts | 143° |
| 2026-04-17 11:45 | 34.58783 | -90.13626 | 35053 ft | 549 kts | 143° |
| 2026-04-17 11:45 | 34.53104 | -90.07433 | 35063 ft | 549 kts | 143° |
| 2026-04-17 11:46 | 34.47413 | -90.01233 | 35072 ft | 550 kts | 143° |
| 2026-04-17 11:46 | 34.41784 | -89.94948 | 35080 ft | 551 kts | 142° |
| 2026-04-17 11:47 | 34.36120 | -89.88703 | 35084 ft | 550 kts | 143° |
| 2026-04-17 11:47 | 34.30461 | -89.82534 | 35082 ft | 550 kts | 143° |
| 2026-04-17 11:48 | 34.24743 | -89.76307 | 35076 ft | 551 kts | 143° |
| 2026-04-17 11:48 | 34.19051 | -89.70112 | 35073 ft | 551 kts | 143° |
| 2026-04-17 11:49 | 34.13380 | -89.63944 | 35082 ft | 551 kts | 143° |
| 2026-04-17 11:49 | 34.07685 | -89.57744 | 35075 ft | 551 kts | 143° |
| 2026-04-17 11:50 | 34.01937 | -89.51621 | 35073 ft | 550 kts | 144° |
| 2026-04-17 11:50 | 33.96183 | -89.45508 | 35073 ft | 551 kts | 143° |
| 2026-04-17 11:51 | 33.90514 | -89.39349 | 35076 ft | 552 kts | 143° |
| 2026-04-17 11:51 | 33.84815 | -89.33161 | 35080 ft | 551 kts | 143° |
| 2026-04-17 11:52 | 33.79055 | -89.27056 | 35085 ft | 551 kts | 144° |
| 2026-04-17 11:52 | 33.73302 | -89.20985 | 35091 ft | 551 kts | 143° |
| 2026-04-17 11:53 | 33.67601 | -89.14815 | 35094 ft | 551 kts | 142° |
| 2026-04-17 11:53 | 33.61878 | -89.08682 | 35095 ft | 551 kts | 143° |
| 2026-04-17 11:54 | 33.56113 | -89.02629 | 35093 ft | 551 kts | 143° |
| 2026-04-17 11:54 | 33.50349 | -88.96571 | 35092 ft | 551 kts | 143° |
| 2026-04-17 11:55 | 33.44594 | -88.90503 | 35089 ft | 551 kts | 143° |
| 2026-04-17 11:55 | 33.38937 | -88.84384 | 35090 ft | 551 kts | 143° |
| 2026-04-17 11:56 | 33.33192 | -88.78310 | 35090 ft | 551 kts | 143° |
| 2026-04-17 11:56 | 33.27421 | -88.72256 | 35077 ft | 551 kts | 143° |
| 2026-04-17 11:57 | 33.21663 | -88.66211 | 35076 ft | 551 kts | 143° |
| 2026-04-17 11:57 | 33.15893 | -88.60158 | 35048 ft | 551 kts | 143° |
| 2026-04-17 11:58 | 33.10149 | -88.54144 | 35015 ft | 552 kts | 143° |
| 2026-04-17 11:58 | 33.04382 | -88.48094 | 34995 ft | 552 kts | 143° |
| 2026-04-17 11:59 | 32.98616 | -88.42036 | 34989 ft | 553 kts | 143° |
| 2026-04-17 11:59 | 32.92836 | -88.35977 | 35000 ft | 553 kts | 143° |
| 2026-04-17 12:00 | 32.87092 | -88.29950 | 35031 ft | 553 kts | 143° |
| 2026-04-17 12:00 | 32.81266 | -88.23970 | 35069 ft | 553 kts | 144° |
| 2026-04-17 12:01 | 32.75439 | -88.18001 | 35086 ft | 553 kts | 143° |
| 2026-04-17 12:01 | 32.69654 | -88.11955 | 35095 ft | 554 kts | 143° |
| 2026-04-17 12:02 | 32.63872 | -88.05916 | 35083 ft | 553 kts | 143° |
| 2026-04-17 12:02 | 32.58043 | -87.99993 | 35086 ft | 551 kts | 144° |
| 2026-04-17 12:03 | 32.55125 | -87.97007 | 34712 ft | 557 kts | 143° |
| 2026-04-17 12:03 | 32.52156 | -87.94090 | 34258 ft | 549 kts | 149° |
| 2026-04-17 12:03 | 32.49015 | -87.91624 | 33809 ft | 535 kts | 153° |
| 2026-04-17 12:03 | 32.45858 | -87.89337 | 33376 ft | 529 kts | 154° |
| 2026-04-17 12:04 | 32.42723 | -87.87083 | 32946 ft | 526 kts | 154° |
| 2026-04-17 12:04 | 32.39617 | -87.84796 | 32509 ft | 523 kts | 153° |
| 2026-04-17 12:04 | 32.36597 | -87.82542 | 32089 ft | 518 kts | 153° |
| 2026-04-17 12:04 | 32.33564 | -87.80271 | 31663 ft | 513 kts | 153° |
| 2026-04-17 12:05 | 32.30562 | -87.78022 | 31243 ft | 508 kts | 153° |
| 2026-04-17 12:05 | 32.27585 | -87.75791 | 30834 ft | 505 kts | 153° |
| 2026-04-17 12:05 | 32.24632 | -87.73572 | 30429 ft | 501 kts | 153° |
| 2026-04-17 12:05 | 32.21709 | -87.71366 | 30021 ft | 497 kts | 153° |
| 2026-04-17 12:06 | 32.18802 | -87.69168 | 29547 ft | 493 kts | 153° |
| 2026-04-17 12:06 | 32.15924 | -87.66997 | 29087 ft | 489 kts | 153° |
| 2026-04-17 12:06 | 32.13063 | -87.64834 | 28630 ft | 486 kts | 152° |
| 2026-04-17 12:06 | 32.10238 | -87.62652 | 28184 ft | 483 kts | 152° |
| 2026-04-17 12:07 | 32.07437 | -87.60482 | 27742 ft | 479 kts | 152° |
| 2026-04-17 12:07 | 32.04688 | -87.58373 | 27298 ft | 475 kts | 152° |
| 2026-04-17 12:07 | 32.01907 | -87.56297 | 26889 ft | 471 kts | 153° |
| 2026-04-17 12:07 | 31.99138 | -87.54247 | 26468 ft | 468 kts | 153° |
| 2026-04-17 12:08 | 31.96391 | -87.52219 | 26057 ft | 464 kts | 153° |
| 2026-04-17 12:08 | 31.93667 | -87.50195 | 25652 ft | 461 kts | 152° |
| 2026-04-17 12:08 | 31.90967 | -87.48150 | 25249 ft | 458 kts | 152° |
| 2026-04-17 12:08 | 31.88296 | -87.46128 | 24859 ft | 455 kts | 152° |
| 2026-04-17 12:09 | 31.85636 | -87.44121 | 24468 ft | 453 kts | 152° |
| 2026-04-17 12:09 | 31.82994 | -87.42136 | 24097 ft | 449 kts | 152° |
| 2026-04-17 12:09 | 31.80365 | -87.40169 | 23699 ft | 446 kts | 152° |
| 2026-04-17 12:09 | 31.77750 | -87.38221 | 23278 ft | 443 kts | 152° |
| 2026-04-17 12:10 | 31.75155 | -87.36293 | 22830 ft | 439 kts | 152° |
| 2026-04-17 12:10 | 31.72580 | -87.34378 | 22391 ft | 436 kts | 152° |
| 2026-04-17 12:10 | 31.70059 | -87.32508 | 21962 ft | 433 kts | 152° |
| 2026-04-17 12:10 | 31.67516 | -87.30629 | 21539 ft | 430 kts | 152° |
| 2026-04-17 12:11 | 31.64991 | -87.28761 | 21134 ft | 427 kts | 151° |
| 2026-04-17 12:11 | 31.62480 | -87.26905 | 20728 ft | 424 kts | 152° |
| 2026-04-17 12:11 | 31.59995 | -87.25063 | 20333 ft | 422 kts | 151° |
| 2026-04-17 12:12 | 31.55166 | -87.21377 | 19540 ft | 399 kts | 150° |
| 2026-04-17 12:12 | 31.52866 | -87.19646 | 19148 ft | 384 kts | 151° |
| 2026-04-17 12:12 | 31.50644 | -87.17998 | 18761 ft | 372 kts | 152° |
| 2026-04-17 12:12 | 31.48489 | -87.16396 | 18378 ft | 362 kts | 151° |
| 2026-04-17 12:13 | 31.46395 | -87.14837 | 17936 ft | 351 kts | 152° |
| 2026-04-17 12:13 | 31.44354 | -87.13315 | 17497 ft | 344 kts | 151° |
| 2026-04-17 12:13 | 31.42355 | -87.11818 | 17065 ft | 339 kts | 151° |
| 2026-04-17 12:13 | 31.40399 | -87.10353 | 16650 ft | 337 kts | 152° |
| 2026-04-17 12:14 | 31.38425 | -87.08884 | 16233 ft | 335 kts | 152° |
| 2026-04-17 12:14 | 31.36447 | -87.07449 | 15822 ft | 333 kts | 152° |
| 2026-04-17 12:14 | 31.34481 | -87.06028 | 15404 ft | 332 kts | 152° |
| 2026-04-17 12:14 | 31.32512 | -87.04607 | 14884 ft | 333 kts | 152° |
| 2026-04-17 12:15 | 31.30557 | -87.03172 | 14349 ft | 329 kts | 152° |
| 2026-04-17 12:15 | 31.28646 | -87.01732 | 13813 ft | 325 kts | 151° |
| 2026-04-17 12:15 | 31.26758 | -87.00307 | 13249 ft | 320 kts | 151° |
| 2026-04-17 12:15 | 31.24890 | -86.98912 | 12677 ft | 316 kts | 151° |
| 2026-04-17 12:16 | 31.23040 | -86.97550 | 12121 ft | 312 kts | 151° |
| 2026-04-17 12:16 | 31.21203 | -86.96216 | 11573 ft | 309 kts | 151° |
| 2026-04-17 12:16 | 31.19380 | -86.94898 | 11041 ft | 307 kts | 150° |
| 2026-04-17 12:16 | 31.17583 | -86.93578 | 10571 ft | 302 kts | 150° |
| 2026-04-17 12:17 | 31.15811 | -86.92295 | 10211 ft | 298 kts | 150° |
| 2026-04-17 12:17 | 31.14073 | -86.91030 | 9876 ft | 297 kts | 149° |
| 2026-04-17 12:17 | 31.12350 | -86.89754 | 9779 ft | 290 kts | 149° |
| 2026-04-17 12:17 | 31.10629 | -86.88492 | 9721 ft | 296 kts | 149° |
| 2026-04-17 12:18 | 31.08867 | -86.87207 | 9642 ft | 300 kts | 149° |
| 2026-04-17 12:18 | 31.07104 | -86.85922 | 9546 ft | 298 kts | 149° |
| 2026-04-17 12:18 | 31.05345 | -86.84642 | 9434 ft | 296 kts | 149° |
| 2026-04-17 12:18 | 31.03601 | -86.83371 | 9335 ft | 296 kts | 148° |
| 2026-04-17 12:19 | 31.01871 | -86.82077 | 9244 ft | 295 kts | 148° |
| 2026-04-17 12:19 | 31.00141 | -86.80787 | 9151 ft | 294 kts | 148° |
| 2026-04-17 12:19 | 30.98415 | -86.79510 | 9064 ft | 293 kts | 148° |
| 2026-04-17 12:19 | 30.96692 | -86.78240 | 8975 ft | 292 kts | 148° |
| 2026-04-17 12:20 | 30.94971 | -86.76979 | 8882 ft | 292 kts | 148° |
| 2026-04-17 12:20 | 30.93273 | -86.75740 | 8786 ft | 291 kts | 148° |
| 2026-04-17 12:20 | 30.91561 | -86.74495 | 8696 ft | 290 kts | 148° |
| 2026-04-17 12:20 | 30.89845 | -86.73255 | 8604 ft | 290 kts | 148° |
| 2026-04-17 12:21 | 30.88135 | -86.72021 | 8512 ft | 288 kts | 148° |
| 2026-04-17 12:21 | 30.86447 | -86.70772 | 8417 ft | 287 kts | 147° |
| 2026-04-17 12:21 | 30.84791 | -86.69544 | 8307 ft | 277 kts | 147° |
| 2026-04-17 12:21 | 30.83177 | -86.68354 | 8012 ft | 273 kts | 147° |
| 2026-04-17 12:22 | 30.81459 | -86.67420 | 7463 ft | 275 kts | 161° |
| 2026-04-17 12:22 | 30.79639 | -86.66771 | 7059 ft | 270 kts | 161° |
| 2026-04-17 12:22 | 30.77865 | -86.66133 | 6711 ft | 263 kts | 160° |
| 2026-04-17 12:22 | 30.76132 | -86.65503 | 6314 ft | 258 kts | 160° |
| 2026-04-17 12:23 | 30.74451 | -86.64877 | 6110 ft | 245 kts | 161° |
| 2026-04-17 12:23 | 30.72797 | -86.64754 | 5845 ft | 249 kts | 192° |
| 2026-04-17 12:23 | 30.71170 | -86.65579 | 5437 ft | 248 kts | 206° |
| 2026-04-17 12:23 | 30.69695 | -86.66461 | 5315 ft | 237 kts | 205° |
| 2026-04-17 12:24 | 30.68207 | -86.67337 | 5103 ft | 245 kts | 205° |
| 2026-04-17 12:24 | 30.66694 | -86.68252 | 4849 ft | 239 kts | 206° |
| 2026-04-17 12:24 | 30.65207 | -86.69166 | 4402 ft | 244 kts | 206° |
| 2026-04-17 12:24 | 30.63716 | -86.70076 | 3962 ft | 240 kts | 206° |
| 2026-04-17 12:25 | 30.62244 | -86.70973 | 3567 ft | 237 kts | 206° |
| 2026-04-17 12:25 | 30.60751 | -86.71717 | 3187 ft | 233 kts | 189° |
| 2026-04-17 12:25 | 30.59213 | -86.71441 | 2716 ft | 229 kts | 151° |
| 2026-04-17 12:25 | 30.58066 | -86.70185 | 2347 ft | 226 kts | 129° |
| 2026-04-17 12:26 | 30.57002 | -86.68813 | 2170 ft | 228 kts | 133° |
| 2026-04-17 12:26 | 30.55924 | -86.67468 | 2134 ft | 228 kts | 132° |
| 2026-04-17 12:26 | 30.54900 | -86.66053 | 2121 ft | 229 kts | 127° |
| 2026-04-17 12:26 | 30.53954 | -86.64573 | 2121 ft | 229 kts | 125° |
| 2026-04-17 12:27 | 30.53106 | -86.63163 | 1982 ft | 201 kts | 123° |
| 2026-04-17 12:27 | 30.52376 | -86.61808 | 1564 ft | 199 kts | 120° |
| 2026-04-17 12:27 | 30.51665 | -86.60423 | 1118 ft | 199 kts | 121° |
| 2026-04-17 12:27 | 30.50920 | -86.59082 | 812 ft | 190 kts | 121° |
| 2026-04-17 12:28 | 30.50259 | -86.57805 | 504 ft | 183 kts | 120° |
| 2026-04-17 12:28 | 30.49611 | -86.56535 | 256 ft | 182 kts | 120° |
| 2026-04-17 12:28 | 30.48957 | -86.55310 | 126 ft | 175 kts | 117° |
| 2026-04-17 12:28 | 30.48550 | -86.54500 | 90 ft | 177 kts | 112° |
| 2026-04-17 12:29 | 30.48001 | -86.53359 | 67 ft | 50 kts | 120° |
| 2026-04-17 12:29 | 30.47913 | -86.53183 | 64 ft | 13 kts | 120° |
| 2026-04-17 12:29 | 30.47825 | -86.53057 | 65 ft | 22 kts | 149° |
| 2026-04-17 12:29 | 30.47683 | -86.53081 | 61 ft | 22 kts | 210° |
| 2026-04-17 12:30 | 30.47599 | -86.53146 | 58 ft | 21 kts | 225° |
| 2026-04-17 12:30 | 30.47594 | -86.53299 | 64 ft | 21 kts | 295° |
| 2026-04-17 12:30 | 30.47662 | -86.53443 | 71 ft | 20 kts | 301° |
| 2026-04-17 12:30 | 30.47733 | -86.53578 | 72 ft | 19 kts | 300° |
| 2026-04-17 12:31 | 30.47800 | -86.53711 | 74 ft | 19 kts | 300° |
| 2026-04-17 12:31 | 30.47864 | -86.53840 | 75 ft | 18 kts | 300° |
| 2026-04-17 12:31 | 30.47926 | -86.53965 | 77 ft | 18 kts | 300° |
| 2026-04-17 12:31 | 30.47994 | -86.54100 | 75 ft | 21 kts | 300° |
| 2026-04-17 12:32 | 30.48074 | -86.54260 | 82 ft | 24 kts | 298° |
| 2026-04-17 12:32 | 30.48156 | -86.54437 | 81 ft | 26 kts | 298° |
| 2026-04-17 12:32 | 30.48247 | -86.54622 | 83 ft | 24 kts | 301° |
| 2026-04-17 12:32 | 30.48248 | -86.54740 | 87 ft | 14 kts | 226° |
| 2026-04-17 12:33 | 30.48254 | -86.54847 | 86 ft | 12 kts | 268° |
| 2026-04-17 12:33 | 30.48227 | -86.54916 | 86 ft | 0 kts | 284° |